Time;durP1;ratioP1;P1;durP2;ratioP2;P2;SDS_P1;SDS_P2;PMS_P1;PMS_P2;Temp;Humidity;BMP_temperature;BMP_pressure;BME280_temperature;BME280_humidity;BME280_pressure;Samples;Min_cycle;Max_cycle;Signal;HPM_P1;HPM_P2
2021/03/11 00:00:28;;;;;;;19.65;15.48;;;;;;;;;;5093735;28;20020;-69
2021/03/11 00:02:53;;;;;;;17.63;15.68;;;;;;;;;;5092463;28;20460;-70
2021/03/11 00:05:21;;;;;;;21.15;15.77;;;;;;;;;;5093021;28;20055;-70
2021/03/11 00:07:46;;;;;;;21.88;15.80;;;;;;;;;;5097668;28;20036;-70
2021/03/11 00:10:12;;;;;;;19.35;15.07;;;;;;;;;;5097653;28;20460;-69
2021/03/11 00:12:43;;;;;;;22.60;15.82;;;;;;;;;;5097589;28;20020;-70
2021/03/11 00:15:12;;;;;;;19.52;14.90;;;;;;;;;;5096601;28;20023;-69
2021/03/11 00:17:38;;;;;;;20.88;14.48;;;;;;;;;;5097125;28;20044;-70
2021/03/11 00:20:13;;;;;;;19.40;13.75;;;;;;;;;;5097370;28;20498;-69
2021/03/11 00:22:39;;;;;;;20.43;14.13;;;;;;;;;;5097037;28;20016;-69
2021/03/11 00:25:08;;;;;;;18.35;13.95;;;;;;;;;;5097291;28;20012;-69
2021/03/11 00:27:33;;;;;;;17.20;13.30;;;;;;;;;;5097139;28;20040;-69
2021/03/11 00:29:58;;;;;;;15.77;12.98;;;;;;;;;;5097159;28;20016;-70
2021/03/11 00:32:23;;;;;;;17.60;12.85;;;;;;;;;;5096114;28;20024;-69
2021/03/11 00:34:51;;;;;;;15.82;13.25;;;;;;;;;;5097120;28;20035;-69
2021/03/11 00:37:16;;;;;;;16.73;13.15;;;;;;;;;;5095978;28;20019;-70
2021/03/11 00:39:41;;;;;;;15.45;12.43;;;;;;;;;;5097087;28;20173;-70
2021/03/11 00:42:07;;;;;;;15.85;12.55;;;;;;;;;;5096916;28;20024;-69
2021/03/11 00:44:37;;;;;;;17.20;12.60;;;;;;;;;;5096936;28;20023;-70
2021/03/11 00:47:03;;;;;;;18.38;13.30;;;;;;;;;;5096962;28;20032;-70
2021/03/11 00:49:29;;;;;;;20.98;12.73;;;;;;;;;;5096914;28;20321;-70
2021/03/11 00:51:54;;;;;;;16.50;13.05;;;;;;;;;;5096923;28;20023;-69
2021/03/11 00:54:19;;;;;;;16.58;12.82;;;;;;;;;;5096765;28;20027;-70
2021/03/11 00:56:44;;;;;;;16.15;12.52;;;;;;;;;;5096649;28;20073;-70
2021/03/11 00:59:10;;;;;;;19.40;12.38;;;;;;;;;;5096599;28;20028;-69
2021/03/11 01:01:37;;;;;;;15.90;12.10;;;;;;;;;;5096602;28;20096;-70
2021/03/11 01:04:03;;;;;;;18.27;12.63;;;;;;;;;;5096593;28;20020;-70
2021/03/11 01:06:28;;;;;;;17.38;12.13;;;;;;;;;;5096543;28;20015;-69
2021/03/11 01:08:53;;;;;;;15.32;11.32;;;;;;;;;;5096525;28;20049;-69
2021/03/11 01:11:23;;;;;;;17.40;12.85;;;;;;;;;;5096334;28;20024;-69
2021/03/11 01:13:48;;;;;;;14.25;11.43;;;;;;;;;;5096360;28;20020;-70
2021/03/11 01:16:13;;;;;;;15.55;11.57;;;;;;;;;;5096323;28;20080;-69
2021/03/11 01:18:39;;;;;;;13.52;11.10;;;;;;;;;;5084503;28;20105;-69
2021/03/11 01:21:04;;;;;;;15.43;11.43;;;;;;;;;;5076054;28;20433;-70
2021/03/11 01:23:29;;;;;;;15.38;11.32;;;;;;;;;;5076061;28;20036;-71
2021/03/11 01:25:54;;;;;;;15.43;11.38;;;;;;;;;;5075949;28;20024;-70
2021/03/11 01:28:20;;;;;;;16.17;11.38;;;;;;;;;;5094923;28;20024;-70
2021/03/11 01:30:47;;;;;;;12.15;10.32;;;;;;;;;;5096055;28;20023;-71
2021/03/11 01:33:13;;;;;;;13.27;10.45;;;;;;;;;;5096055;28;20107;-70
2021/03/11 01:35:38;;;;;;;13.60;10.48;;;;;;;;;;5096061;28;20413;-70
2021/03/11 01:38:06;;;;;;;13.10;10.98;;;;;;;;;;5095936;28;20024;-70
2021/03/11 01:40:33;;;;;;;11.70;9.95;;;;;;;;;;5094942;28;20501;-69
2021/03/11 01:42:58;;;;;;;12.98;10.05;;;;;;;;;;5095850;28;20098;-70
2021/03/11 01:45:26;;;;;;;12.82;9.80;;;;;;;;;;5094858;28;20091;-70
2021/03/11 01:47:51;;;;;;;11.35;9.43;;;;;;;;;;5095803;28;20020;-70
2021/03/11 01:50:16;;;;;;;15.05;9.25;;;;;;;;;;5095703;28;20031;-70
2021/03/11 01:52:41;;;;;;;12.63;8.98;;;;;;;;;;5095700;28;20164;-70
2021/03/11 01:55:07;;;;;;;13.18;9.88;;;;;;;;;;5095751;28;20015;-70
2021/03/11 01:57:32;;;;;;;11.60;8.30;;;;;;;;;;5095460;28;20353;-69
2021/03/11 01:59:58;;;;;;;11.18;8.18;;;;;;;;;;5095555;28;20020;-69
2021/03/11 02:02:23;;;;;;;10.57;7.65;;;;;;;;;;5095407;28;20337;-69
2021/03/11 02:04:49;;;;;;;8.65;7.47;;;;;;;;;;5095449;28;20031;-70
2021/03/11 02:07:14;;;;;;;9.38;7.22;;;;;;;;;;5095264;28;20016;-69
2021/03/11 02:09:44;;;;;;;8.43;7.30;;;;;;;;;;5095282;28;20020;-69
2021/03/11 02:12:21;;;;;;;9.98;7.00;;;;;;;;;;5095305;28;20052;-70
2021/03/11 02:14:58;;;;;;;7.65;6.47;;;;;;;;;;5095192;28;20035;-70
2021/03/11 02:17:25;;;;;;;8.95;7.05;;;;;;;;;;5094970;28;20105;-71
2021/03/11 02:20:09;;;;;;;10.05;7.35;;;;;;;;;;5095236;28;20530;-69
2021/03/11 02:22:34;;;;;;;9.38;6.55;;;;;;;;;;5095048;28;20495;-69
2021/03/11 02:25:12;;;;;;;7.75;6.38;;;;;;;;;;5095071;28;20016;-70
2021/03/11 02:27:56;;;;;;;8.32;6.93;;;;;;;;;;5095046;28;20089;-68
2021/03/11 02:30:21;;;;;;;7.78;5.70;;;;;;;;;;5093835;28;20089;-68
2021/03/11 02:32:47;;;;;;;7.82;6.22;;;;;;;;;;5094826;28;20383;-68
2021/03/11 02:35:15;;;;;;;6.25;5.55;;;;;;;;;;5094787;28;20373;-68
2021/03/11 02:37:46;;;;;;;7.88;5.75;;;;;;;;;;5094731;28;20034;-69
2021/03/11 02:40:16;;;;;;;7.00;5.55;;;;;;;;;;5094770;28;20020;-69
2021/03/11 02:42:43;;;;;;;5.90;5.30;;;;;;;;;;5094642;28;20020;-68
2021/03/11 02:45:10;;;;;;;6.63;5.50;;;;;;;;;;5093671;28;20024;-69
2021/03/11 02:47:36;;;;;;;6.75;5.28;;;;;;;;;;5094576;28;20095;-69
2021/03/11 02:50:03;;;;;;;5.43;4.93;;;;;;;;;;5094563;28;20390;-69
2021/03/11 02:52:29;;;;;;;7.22;5.30;;;;;;;;;;5094440;28;20214;-68
2021/03/11 02:54:56;;;;;;;7.22;4.85;;;;;;;;;;5094466;28;20056;-69
2021/03/11 02:57:21;;;;;;;5.72;5.10;;;;;;;;;;5094383;28;20440;-69
2021/03/11 02:59:48;;;;;;;6.47;4.90;;;;;;;;;;5094436;28;20063;-68
2021/03/11 03:02:14;;;;;;;5.65;5.05;;;;;;;;;;5094320;28;20103;-69
2021/03/11 03:04:43;;;;;;;5.85;5.25;;;;;;;;;;5094287;28;20091;-68
2021/03/11 03:07:09;;;;;;;6.57;5.32;;;;;;;;;;5094266;28;20442;-69
2021/03/11 03:09:34;;;;;;;8.90;5.32;;;;;;;;;;5094287;28;20080;-68
2021/03/11 03:12:00;;;;;;;6.82;5.35;;;;;;;;;;5094516;28;20016;-68
2021/03/11 03:14:25;;;;;;;6.78;5.18;;;;;;;;;;5094194;28;20357;-69
2021/03/11 03:16:51;;;;;;;6.30;5.70;;;;;;;;;;5093843;28;20160;-67
2021/03/11 03:19:17;;;;;;;7.03;5.82;;;;;;;;;;5094184;28;20322;-68
2021/03/11 03:21:43;;;;;;;6.85;5.35;;;;;;;;;;5094087;28;20020;-68
2021/03/11 03:24:09;;;;;;;6.47;5.35;;;;;;;;;;5094029;28;20095;-68
2021/03/11 03:26:35;;;;;;;6.13;5.18;;;;;;;;;;5093993;28;20374;-69
2021/03/11 03:29:02;;;;;;;6.85;5.57;;;;;;;;;;5092987;28;20034;-69
2021/03/11 03:31:27;;;;;;;6.43;4.90;;;;;;;;;;5093915;28;20024;-68
2021/03/11 03:33:53;;;;;;;7.38;5.57;;;;;;;;;;5093889;28;20433;-69
2021/03/11 03:36:18;;;;;;;6.85;5.03;;;;;;;;;;5093874;28;20388;-68
2021/03/11 03:38:43;;;;;;;8.23;5.70;;;;;;;;;;5093807;28;20016;-69
2021/03/11 03:41:13;;;;;;;7.88;5.10;;;;;;;;;;5092332;28;20419;-68
2021/03/11 03:43:40;;;;;;;6.60;5.13;;;;;;;;;;5093836;28;20602;-70
2021/03/11 03:46:12;;;;;;;6.95;5.43;;;;;;;;;;5093732;28;20459;-68
2021/03/11 03:48:40;;;;;;;7.22;4.53;;;;;;;;;;5093740;28;20016;-67
2021/03/11 03:51:05;;;;;;;6.03;4.45;;;;;;;;;;5093796;28;20024;-68
2021/03/11 03:53:35;;;;;;;7.32;5.13;;;;;;;;;;5092780;28;20031;-68
2021/03/11 03:56:03;;;;;;;6.90;4.50;;;;;;;;;;5093798;28;20110;-69
2021/03/11 03:58:33;;;;;;;6.20;5.10;;;;;;;;;;5092651;28;20027;-68
2021/03/11 04:00:58;;;;;;;5.88;4.47;;;;;;;;;;5093639;28;20016;-68
2021/03/11 04:03:26;;;;;;;4.72;4.22;;;;;;;;;;5093645;28;20016;-68
2021/03/11 04:05:54;;;;;;;5.07;4.30;;;;;;;;;;5093578;28;20020;-68
2021/03/11 04:08:21;;;;;;;4.63;4.22;;;;;;;;;;5093602;28;20020;-68
2021/03/11 04:10:47;;;;;;;5.15;4.32;;;;;;;;;;5093513;28;20020;-68
2021/03/11 04:13:12;;;;;;;5.50;4.03;;;;;;;;;;5093740;28;20024;-68
2021/03/11 04:15:38;;;;;;;4.88;4.10;;;;;;;;;;5092600;28;20039;-68
2021/03/11 04:18:04;;;;;;;5.47;4.10;;;;;;;;;;5093230;28;20360;-68
2021/03/11 04:20:29;;;;;;;4.70;3.90;;;;;;;;;;5093503;28;20027;-68
2021/03/11 04:22:55;;;;;;;5.10;3.83;;;;;;;;;;5093404;28;20012;-68
2021/03/11 04:25:20;;;;;;;4.03;3.67;;;;;;;;;;5093501;28;20016;-68
2021/03/11 04:27:50;;;;;;;4.47;3.67;;;;;;;;;;5093668;28;20024;-69
2021/03/11 04:30:16;;;;;;;3.95;3.60;;;;;;;;;;5093444;28;20031;-68
2021/03/11 04:32:41;;;;;;;3.70;3.40;;;;;;;;;;5093259;28;20531;-68
2021/03/11 04:35:11;;;;;;;4.72;3.38;;;;;;;;;;5093301;28;20036;-68
2021/03/11 04:37:37;;;;;;;3.63;2.97;;;;;;;;;;5093158;28;20358;-68
2021/03/11 04:40:03;;;;;;;3.90;3.20;;;;;;;;;;5093316;28;20020;-68
2021/03/11 04:42:29;;;;;;;4.40;2.92;;;;;;;;;;5092163;28;20031;-68
2021/03/11 04:44:54;;;;;;;3.40;3.10;;;;;;;;;;5093255;28;20012;-68
2021/03/11 04:47:20;;;;;;;2.85;2.58;;;;;;;;;;5092166;28;20022;-68
2021/03/11 04:49:45;;;;;;;3.08;2.55;;;;;;;;;;5092270;28;20028;-68
2021/03/11 04:52:13;;;;;;;2.78;2.47;;;;;;;;;;5093172;28;20348;-68
2021/03/11 04:54:41;;;;;;;2.42;2.20;;;;;;;;;;5095678;28;20468;-68
2021/03/11 04:57:08;;;;;;;3.10;2.60;;;;;;;;;;5096702;28;20028;-68
2021/03/11 04:59:35;;;;;;;3.40;2.45;;;;;;;;;;5096667;28;20020;-68
2021/03/11 05:02:03;;;;;;;2.83;2.63;;;;;;;;;;5096433;28;20103;-68
2021/03/11 05:04:28;;;;;;;2.55;2.20;;;;;;;;;;5096586;28;20449;-68
2021/03/11 05:06:53;;;;;;;2.17;2.00;;;;;;;;;;5096542;28;20020;-68
2021/03/11 05:09:19;;;;;;;2.72;2.10;;;;;;;;;;5096427;28;20058;-69
2021/03/11 05:11:44;;;;;;;3.17;2.30;;;;;;;;;;5096283;28;20024;-68
2021/03/11 05:14:09;;;;;;;3.33;1.80;;;;;;;;;;5096345;28;20016;-68
2021/03/11 05:16:35;;;;;;;2.53;1.90;;;;;;;;;;5096360;28;20056;-68
2021/03/11 05:19:00;;;;;;;2.25;2.08;;;;;;;;;;5095892;28;20059;-69
2021/03/11 05:21:28;;;;;;;2.83;2.10;;;;;;;;;;5096256;28;20019;-68
2021/03/11 05:23:53;;;;;;;2.20;2.00;;;;;;;;;;5095891;28;20024;-68
2021/03/11 05:26:19;;;;;;;2.33;2.03;;;;;;;;;;5096165;28;20026;-68
2021/03/11 05:28:44;;;;;;;2.50;2.30;;;;;;;;;;5096077;28;20081;-69
2021/03/11 05:31:09;;;;;;;3.08;2.25;;;;;;;;;;5095732;28;20073;-68
2021/03/11 05:33:37;;;;;;;2.17;2.05;;;;;;;;;;5095866;28;20036;-68
2021/03/11 05:36:02;;;;;;;2.22;2.10;;;;;;;;;;5096033;28;20433;-68
2021/03/11 05:38:32;;;;;;;2.17;2.08;;;;;;;;;;5095720;28;20073;-68
2021/03/11 05:40:57;;;;;;;2.33;2.08;;;;;;;;;;5088053;28;20013;-68
2021/03/11 05:43:24;;;;;;;2.28;2.08;;;;;;;;;;5111976;28;20089;-68
2021/03/11 05:45:49;;;;;;;6.95;2.47;;;;;;;;;;5085454;28;20346;-68
2021/03/11 05:48:15;;;;;;;2.50;2.20;;;;;;;;;;5092308;28;20024;-68
2021/03/11 05:50:42;;;;;;;2.35;2.15;;;;;;;;;;5095838;28;20119;-68
2021/03/11 05:53:07;;;;;;;3.97;2.47;;;;;;;;;;5082073;28;20040;-69
2021/03/11 05:55:36;;;;;;;2.53;2.10;;;;;;;;;;5084252;28;20074;-68
2021/03/11 05:58:01;;;;;;;2.53;2.30;;;;;;;;;;5075221;28;20024;-69
2021/03/11 06:00:27;;;;;;;2.55;2.33;;;;;;;;;;5091440;28;20047;-69
2021/03/11 06:02:56;;;;;;;4.97;3.17;;;;;;;;;;5094191;28;20035;-68
2021/03/11 06:05:22;;;;;;;4.05;2.70;;;;;;;;;;5094791;28;20024;-68
2021/03/11 06:07:48;;;;;;;2.65;2.35;;;;;;;;;;5095041;28;20020;-69
2021/03/11 06:10:14;;;;;;;2.75;2.30;;;;;;;;;;5094857;28;20092;-69
2021/03/11 06:12:41;;;;;;;2.50;2.30;;;;;;;;;;5095059;28;20103;-68
2021/03/11 06:15:06;;;;;;;2.17;2.03;;;;;;;;;;5094821;28;20024;-69
2021/03/11 06:17:32;;;;;;;2.35;2.15;;;;;;;;;;5094582;28;20063;-69
2021/03/11 06:19:58;;;;;;;2.50;2.30;;;;;;;;;;5094759;28;20441;-69
2021/03/11 06:22:26;;;;;;;2.20;2.00;;;;;;;;;;5094724;28;20012;-69
2021/03/11 06:24:51;;;;;;;2.20;2.00;;;;;;;;;;5094593;28;20016;-70
2021/03/11 06:27:16;;;;;;;2.90;2.10;;;;;;;;;;5094638;28;20365;-69
2021/03/11 06:29:42;;;;;;;2.25;2.03;;;;;;;;;;5094594;28;20048;-69
2021/03/11 06:32:10;;;;;;;3.95;1.80;;;;;;;;;;5094521;28;20047;-68
2021/03/11 06:34:39;;;;;;;2.00;1.90;;;;;;;;;;5091881;28;20012;-69
2021/03/11 06:37:04;;;;;;;2.58;1.70;;;;;;;;;;5094510;28;20341;-69
2021/03/11 06:39:37;;;;;;;1.90;1.75;;;;;;;;;;5094537;28;20053;-68
2021/03/11 06:42:03;;;;;;;1.88;1.67;;;;;;;;;;5091685;28;20016;-68
2021/03/11 06:44:36;;;;;;;2.47;1.83;;;;;;;;;;5094390;28;20012;-68
2021/03/11 06:47:02;;;;;;;1.60;1.50;;;;;;;;;;5094665;28;20088;-68
2021/03/11 06:49:28;;;;;;;4.00;1.55;;;;;;;;;;5094634;28;20058;-68
2021/03/11 06:52:06;;;;;;;2.67;1.58;;;;;;;;;;5094508;28;20052;-68
2021/03/11 06:54:49;;;;;;;1.50;1.40;;;;;;;;;;5094399;28;20020;-68
2021/03/11 06:57:25;;;;;;;2.35;1.45;;;;;;;;;;5094420;28;20023;-68
2021/03/11 06:59:50;;;;;;;;;;;;;;;;;;5084379;28;20050;-68
2021/03/11 07:02:18;;;;;;;2.00;1.40;;;;;;;;;;5074195;28;20012;-68
2021/03/11 07:04:43;;;;;;;4.75;1.40;;;;;;;;;;5096617;28;20020;-68
2021/03/11 07:07:18;;;;;;;1.40;1.30;;;;;;;;;;5093257;28;20031;-68
2021/03/11 07:09:45;;;;;;;1.50;1.30;;;;;;;;;;5090044;28;20008;-68
2021/03/11 07:12:11;;;;;;;1.42;1.20;;;;;;;;;;5089061;28;20027;-68
2021/03/11 07:14:36;;;;;;;1.40;1.30;;;;;;;;;;5089443;28;20445;-69
2021/03/11 07:17:19;;;;;;;1.35;1.25;;;;;;;;;;5093331;28;20285;-69
2021/03/11 07:20:04;;;;;;;1.50;1.40;;;;;;;;;;5089226;28;20020;-68
2021/03/11 07:22:29;;;;;;;1.38;1.20;;;;;;;;;;5092624;28;20020;-69
2021/03/11 07:24:54;;;;;;;1.05;1.02;;;;;;;;;;5094060;28;20012;-68
2021/03/11 07:27:19;;;;;;;1.55;1.10;;;;;;;;;;5094025;28;20024;-68
2021/03/11 07:29:59;;;;;;;1.60;1.15;;;;;;;;;;5093935;28;20364;-69
2021/03/11 07:32:25;;;;;;;1.23;1.10;;;;;;;;;;5093411;28;20341;-68
2021/03/11 07:34:50;;;;;;;3.13;1.20;;;;;;;;;;5087821;28;20023;-68
2021/03/11 07:37:18;;;;;;;1.63;1.13;;;;;;;;;;5087656;28;20075;-68
2021/03/11 07:39:44;;;;;;;1.60;1.08;;;;;;;;;;5080061;28;20020;-68
2021/03/11 07:42:09;;;;;;;1.40;1.20;;;;;;;;;;5082766;28;20403;-69
2021/03/11 07:44:35;;;;;;;1.42;1.33;;;;;;;;;;5079599;28;20024;-69
2021/03/11 07:47:01;;;;;;;1.63;1.38;;;;;;;;;;5086933;28;20020;-69
2021/03/11 07:49:27;;;;;;;1.85;1.40;;;;;;;;;;5091185;28;20077;-69
2021/03/11 07:51:53;;;;;;;1.80;1.50;;;;;;;;;;5092201;28;20020;-69
2021/03/11 07:54:21;;;;;;;1.83;1.20;;;;;;;;;;5093439;28;20027;-70
2021/03/11 07:56:50;;;;;;;2.45;1.58;;;;;;;;;;5093751;28;20361;-69
2021/03/11 07:59:18;;;;;;;2.17;1.50;;;;;;;;;;5093417;28;20070;-70
2021/03/11 08:01:50;;;;;;;1.30;1.20;;;;;;;;;;5093348;28;20020;-70
2021/03/11 08:04:19;;;;;;;2.33;1.65;;;;;;;;;;5093437;28;20020;-68
2021/03/11 08:06:45;;;;;;;2.15;1.60;;;;;;;;;;5093524;28;20380;-69
2021/03/11 08:09:10;;;;;;;2.05;1.50;;;;;;;;;;5090768;28;20030;-70
2021/03/11 08:11:38;;;;;;;1.85;1.75;;;;;;;;;;5079111;28;20040;-69
2021/03/11 08:14:17;;;;;;;1.73;1.63;;;;;;;;;;5085793;28;20508;-68
2021/03/11 08:16:42;;;;;;;14.68;11.38;;;;;;;;;;5083910;28;20615;-71
2021/03/11 08:19:07;;;;;;;3.28;2.97;;;;;;;;;;5086526;28;20174;-70
2021/03/11 08:21:35;;;;;;;2.70;2.38;;;;;;;;;;5091591;28;20322;-71
2021/03/11 08:24:00;;;;;;;2.10;1.80;;;;;;;;;;5093503;28;20043;-70
2021/03/11 08:26:38;;;;;;;2.45;1.90;;;;;;;;;;5093694;28;20521;-70
2021/03/11 08:29:15;;;;;;;2.88;2.05;;;;;;;;;;5097262;28;20048;-70
2021/03/11 08:31:41;;;;;;;2.78;2.05;;;;;;;;;;5097239;28;20042;-71
2021/03/11 08:34:06;;;;;;;2.22;2.03;;;;;;;;;;5096848;28;20020;-70
2021/03/11 08:36:36;;;;;;;3.33;2.40;;;;;;;;;;5096908;28;20016;-71
2021/03/11 08:39:02;;;;;;;2.65;2.45;;;;;;;;;;5113158;28;20352;-71
2021/03/11 08:41:28;;;;;;;3.45;2.40;;;;;;;;;;5096976;28;20099;-71
2021/03/11 08:43:56;;;;;;;5.53;2.65;;;;;;;;;;5097025;28;20394;-71
2021/03/11 08:46:23;;;;;;;2.63;2.35;;;;;;;;;;5096818;28;20047;-71
2021/03/11 08:48:56;;;;;;;2.33;2.05;;;;;;;;;;5096537;28;20016;-71
2021/03/11 08:51:21;;;;;;;3.13;2.50;;;;;;;;;;5096738;28;20528;-70
2021/03/11 08:53:48;;;;;;;5.30;4.00;;;;;;;;;;5094434;28;20107;-70
2021/03/11 08:56:16;;;;;;;11.00;8.27;;;;;;;;;;5096654;28;20702;-71
2021/03/11 08:58:57;;;;;;;3.15;2.40;;;;;;;;;;5088019;28;20032;-70
2021/03/11 09:01:42;;;;;;;3.15;2.28;;;;;;;;;;5092266;28;20073;-69
2021/03/11 09:04:20;;;;;;;2.83;2.20;;;;;;;;;;5087632;28;20437;-69
2021/03/11 09:06:55;;;;;;;2.15;1.88;;;;;;;;;;5084920;28;20399;-70
2021/03/11 09:09:40;;;;;;;3.60;2.20;;;;;;;;;;5095193;28;20107;-69
2021/03/11 09:12:06;;;;;;;2.22;1.88;;;;;;;;;;5095854;28;20020;-69
2021/03/11 09:14:34;;;;;;;2.40;1.95;;;;;;;;;;5096421;28;20020;-69
2021/03/11 09:17:00;;;;;;;2.05;1.80;;;;;;;;;;5095546;28;20352;-69
2021/03/11 09:19:33;;;;;;;1.77;1.50;;;;;;;;;;5095504;28;20035;-69
2021/03/11 09:21:59;;;;;;;2.45;1.42;;;;;;;;;;5096236;28;20023;-69
2021/03/11 09:24:24;;;;;;;1.08;1.08;;;;;;;;;;5096306;28;20016;-69
2021/03/11 09:26:49;;;;;;;1.88;1.20;;;;;;;;;;5096077;28;20023;-69
2021/03/11 09:29:15;;;;;;;1.25;1.15;;;;;;;;;;5096139;28;20103;-70
2021/03/11 09:31:41;;;;;;;1.42;1.33;;;;;;;;;;5095019;28;20088;-69
2021/03/11 09:34:07;;;;;;;1.40;1.30;;;;;;;;;;5095071;28;20425;-69
2021/03/11 09:36:32;;;;;;;1.02;0.93;;;;;;;;;;5096037;28;20012;-70
2021/03/11 09:39:05;;;;;;;1.23;1.13;;;;;;;;;;5094995;28;20024;-69
2021/03/11 09:41:31;;;;;;;1.73;1.17;;;;;;;;;;5095986;28;20012;-70
2021/03/11 09:44:02;;;;;;;3.25;1.10;;;;;;;;;;5095866;28;20095;-69
2021/03/11 09:46:27;;;;;;;1.02;0.93;;;;;;;;;;5095858;28;20422;-69
2021/03/11 09:48:53;;;;;;;2.78;1.30;;;;;;;;;;5096087;28;20023;-69
2021/03/11 09:51:21;;;;;;;3.20;1.10;;;;;;;;;;5095761;28;20096;-69
2021/03/11 09:53:54;;;;;;;2.42;0.80;;;;;;;;;;5094714;28;20378;-69
2021/03/11 09:56:19;;;;;;;2.97;1.30;;;;;;;;;;5095689;28;20391;-69
2021/03/11 09:58:46;;;;;;;2.25;1.30;;;;;;;;;;5095512;28;20023;-69
2021/03/11 10:01:19;;;;;;;4.38;1.38;;;;;;;;;;5094957;28;20345;-69
2021/03/11 10:03:47;;;;;;;2.35;1.23;;;;;;;;;;5094965;28;20027;-70
2021/03/11 10:06:14;;;;;;;3.53;1.63;;;;;;;;;;5095586;28;20443;-70
2021/03/11 10:08:42;;;;;;;1.90;1.08;;;;;;;;;;5095435;28;20023;-69
2021/03/11 10:11:13;;;;;;;2.53;1.27;;;;;;;;;;5094385;28;20020;-70
2021/03/11 10:13:41;;;;;;;4.43;1.20;;;;;;;;;;5095432;28;20031;-70
2021/03/11 10:16:07;;;;;;;3.47;1.50;;;;;;;;;;5095469;28;20364;-70
2021/03/11 10:18:32;;;;;;;4.50;1.27;;;;;;;;;;5095045;28;20036;-70
2021/03/11 10:21:04;;;;;;;4.03;1.38;;;;;;;;;;5095235;28;20019;-70
2021/03/11 10:23:30;;;;;;;6.43;1.20;;;;;;;;;;5094255;28;20024;-69
2021/03/11 10:26:15;;;;;;;3.22;1.10;;;;;;;;;;5095097;28;20081;-69
2021/03/11 10:28:41;;;;;;;3.90;1.25;;;;;;;;;;5095115;28;20059;-70
2021/03/11 10:31:10;;;;;;;4.03;1.05;;;;;;;;;;5095059;28;20246;-70
2021/03/11 10:33:36;;;;;;;3.88;1.38;;;;;;;;;;5095022;28;20395;-70
2021/03/11 10:36:15;;;;;;;3.88;1.02;;;;;;;;;;5094918;28;20103;-70
2021/03/11 10:38:40;;;;;;;4.38;1.08;;;;;;;;;;5094847;28;20024;-70
2021/03/11 10:41:10;;;;;;;3.53;1.30;;;;;;;;;;5093656;28;20103;-71
2021/03/11 10:43:36;;;;;;;2.75;1.20;;;;;;;;;;5088208;28;20089;-71
2021/03/11 10:46:01;;;;;;;5.57;1.70;;;;;;;;;;5108282;28;20012;-71
2021/03/11 10:48:26;;;;;;;3.15;1.33;;;;;;;;;;5088024;28;20020;-71
2021/03/11 10:50:53;;;;;;;5.65;1.48;;;;;;;;;;5094256;28;20040;-71
2021/03/11 10:53:22;;;;;;;3.88;1.40;;;;;;;;;;5090229;28;20050;-71
2021/03/11 10:55:54;;;;;;;6.20;1.52;;;;;;;;;;5093903;28;20111;-71
2021/03/11 10:58:20;;;;;;;8.20;1.65;;;;;;;;;;5094181;28;20020;-71
2021/03/11 11:00:45;;;;;;;2.95;1.23;;;;;;;;;;5094378;28;20012;-72
2021/03/11 11:03:13;;;;;;;4.18;1.92;;;;;;;;;;5094142;28;20020;-72
2021/03/11 11:05:43;;;;;;;16.17;1.85;;;;;;;;;;5094074;28;20028;-69
2021/03/11 11:08:08;;;;;;;3.10;1.50;;;;;;;;;;5093174;28;20095;-73
2021/03/11 11:10:34;;;;;;;3.65;1.60;;;;;;;;;;5094112;28;20149;-71
2021/03/11 11:12:59;;;;;;;3.80;1.60;;;;;;;;;;5094035;28;20012;-70
2021/03/11 11:15:30;;;;;;;3.80;1.77;;;;;;;;;;5093777;28;20016;-69
2021/03/11 11:17:55;;;;;;;3.35;1.52;;;;;;;;;;5087483;28;20043;-70
2021/03/11 11:20:22;;;;;;;4.78;1.88;;;;;;;;;;5087725;28;20502;-71
2021/03/11 11:22:49;;;;;;;10.98;1.67;;;;;;;;;;5092908;28;20460;-69
2021/03/11 11:25:15;;;;;;;5.82;1.60;;;;;;;;;;5093868;28;20020;-69
2021/03/11 11:27:40;;;;;;;5.38;1.30;;;;;;;;;;5093682;28;20034;-70
2021/03/11 11:30:07;;;;;;;3.22;1.40;;;;;;;;;;5094025;28;20051;-70
2021/03/11 11:32:32;;;;;;;3.17;1.20;;;;;;;;;;5082176;28;20017;-71
2021/03/11 11:34:58;;;;;;;5.28;1.27;;;;;;;;;;5079028;28;20031;-70
2021/03/11 11:37:23;;;;;;;3.42;1.52;;;;;;;;;;5086436;28;20012;-69
2021/03/11 11:39:49;;;;;;;2.43;1.50;;;;;;;;;;5091933;28;20039;-70
2021/03/11 11:42:15;;;;;;;3.10;1.42;;;;;;;;;;5093877;28;20269;-70
2021/03/11 11:44:40;;;;;;;4.65;1.50;;;;;;;;;;5093810;28;20032;-71
2021/03/11 11:47:06;;;;;;;4.15;1.33;;;;;;;;;;5093758;28;20415;-70
2021/03/11 11:49:31;;;;;;;5.75;1.63;;;;;;;;;;5093282;28;20031;-70
2021/03/11 11:51:56;;;;;;;4.82;1.63;;;;;;;;;;5093744;28;20059;-70
2021/03/11 11:54:21;;;;;;;3.03;1.50;;;;;;;;;;5093337;28;20030;-69
2021/03/11 11:56:47;;;;;;;7.73;1.93;;;;;;;;;;5088964;28;20035;-70
2021/03/11 11:59:15;;;;;;;4.32;1.92;;;;;;;;;;5093753;28;20314;-70
2021/03/11 12:01:40;;;;;;;4.63;1.80;;;;;;;;;;5093966;28;20026;-72
2021/03/11 12:04:07;;;;;;;6.18;1.92;;;;;;;;;;5097402;28;20023;-69
2021/03/11 12:06:33;;;;;;;5.90;2.05;;;;;;;;;;5096713;28;20086;-69
2021/03/11 12:08:58;;;;;;;5.37;2.00;;;;;;;;;;5094520;28;20043;-69
2021/03/11 12:11:23;;;;;;;8.80;2.10;;;;;;;;;;5097175;28;20293;-69
2021/03/11 12:13:48;;;;;;;10.00;2.08;;;;;;;;;;5097396;28;20354;-70
2021/03/11 12:16:14;;;;;;;6.75;2.45;;;;;;;;;;5096882;28;20024;-70
2021/03/11 12:18:41;;;;;;;10.03;2.70;;;;;;;;;;5096595;28;20126;-70
2021/03/11 12:21:06;;;;;;;6.05;2.45;;;;;;;;;;5094542;28;20276;-70
2021/03/11 12:23:32;;;;;;;8.13;2.40;;;;;;;;;;5097060;28;20103;-70
2021/03/11 12:25:59;;;;;;;5.32;2.13;;;;;;;;;;5097117;28;20035;-71
2021/03/11 12:28:27;;;;;;;4.40;1.92;;;;;;;;;;5097296;28;20012;-71
2021/03/11 12:30:52;;;;;;;5.28;1.98;;;;;;;;;;5096404;28;20133;-71
2021/03/11 12:33:17;;;;;;;7.63;2.10;;;;;;;;;;5097328;28;20020;-71
2021/03/11 12:35:46;;;;;;;7.07;1.90;;;;;;;;;;5094090;28;20122;-71
2021/03/11 12:38:11;;;;;;;6.43;2.10;;;;;;;;;;5091471;28;20459;-71
2021/03/11 12:40:36;;;;;;;5.72;2.10;;;;;;;;;;5093871;28;20028;-70
2021/03/11 12:43:01;;;;;;;8.43;1.90;;;;;;;;;;5085469;28;20118;-71
2021/03/11 12:45:28;;;;;;;6.72;2.05;;;;;;;;;;5095125;28;20498;-70
2021/03/11 12:47:53;;;;;;;6.18;1.90;;;;;;;;;;5096663;28;20024;-70
2021/03/11 12:50:19;;;;;;;7.15;1.95;;;;;;;;;;5092647;28;20085;-71
2021/03/11 12:52:45;;;;;;;6.95;2.00;;;;;;;;;;5096599;28;20016;-70
2021/03/11 12:55:11;;;;;;;6.85;1.85;;;;;;;;;;5096447;28;20360;-70
2021/03/11 12:57:38;;;;;;;8.20;1.90;;;;;;;;;;5096271;28;20024;-71
2021/03/11 13:00:04;;;;;;;5.90;2.05;;;;;;;;;;5096348;28;20340;-72
2021/03/11 13:02:32;;;;;;;6.93;1.92;;;;;;;;;;5096240;28;20062;-73
2021/03/11 13:04:58;;;;;;;6.32;2.22;;;;;;;;;;5096297;28;20012;-72
2021/03/11 13:07:23;;;;;;;6.40;2.30;;;;;;;;;;5092224;28;20019;-70
2021/03/11 13:09:48;;;;;;;6.67;2.40;;;;;;;;;;5095334;28;20024;-71
2021/03/11 13:12:14;;;;;;;5.93;2.13;;;;;;;;;;5096470;28;20640;-71
2021/03/11 13:14:39;;;;;;;8.23;2.33;;;;;;;;;;5094223;28;20035;-71
2021/03/11 13:17:04;;;;;;;9.95;2.63;;;;;;;;;;5095059;28;20047;-70
2021/03/11 13:19:29;;;;;;;8.02;2.08;;;;;;;;;;5095949;28;20171;-71
2021/03/11 13:21:55;;;;;;;5.45;2.13;;;;;;;;;;5095934;28;20012;-70
2021/03/11 13:24:20;;;;;;;8.63;2.50;;;;;;;;;;5083652;28;20017;-71
2021/03/11 13:26:45;;;;;;;6.70;2.35;;;;;;;;;;5094855;28;20027;-73
2021/03/11 13:29:13;;;;;;;6.43;2.40;;;;;;;;;;5087361;28;20021;-70
2021/03/11 13:31:38;;;;;;;6.07;1.95;;;;;;;;;;5095616;28;20277;-70
2021/03/11 13:34:04;;;;;;;4.03;1.60;;;;;;;;;;5095816;28;20016;-70
2021/03/11 13:36:29;;;;;;;5.63;1.70;;;;;;;;;;5095580;28;20032;-71
2021/03/11 13:38:55;;;;;;;6.43;1.80;;;;;;;;;;5091825;28;20084;-71
2021/03/11 13:41:20;;;;;;;4.05;1.90;;;;;;;;;;5095958;28;20035;-70
2021/03/11 13:43:45;;;;;;;3.67;1.50;;;;;;;;;;5082735;28;20104;-70
2021/03/11 13:46:11;;;;;;;3.37;1.70;;;;;;;;;;5075515;28;20020;-71
2021/03/11 13:48:36;;;;;;;5.67;1.83;;;;;;;;;;5093643;28;20694;-72
2021/03/11 13:51:01;;;;;;;3.70;1.83;;;;;;;;;;5095778;28;20266;-71
2021/03/11 13:53:26;;;;;;;5.78;1.77;;;;;;;;;;5094926;28;20018;-70
2021/03/11 13:55:52;;;;;;;5.00;1.83;;;;;;;;;;5095823;28;20075;-70
2021/03/11 13:58:18;;;;;;;6.22;1.90;;;;;;;;;;5084769;28;20043;-70
2021/03/11 14:00:43;;;;;;;4.60;1.80;;;;;;;;;;5085808;28;20024;-69
2021/03/11 14:03:08;;;;;;;4.80;2.10;;;;;;;;;;5087230;28;20274;-69
2021/03/11 14:05:34;;;;;;;4.63;1.80;;;;;;;;;;5086783;28;20360;-69
2021/03/11 14:07:59;;;;;;;19.02;2.30;;;;;;;;;;5078830;28;20032;-69
2021/03/11 14:10:24;;;;;;;4.68;1.92;;;;;;;;;;5087896;28;20041;-71
2021/03/11 14:12:49;;;;;;;4.43;2.25;;;;;;;;;;5089054;28;20023;-70
2021/03/11 14:15:17;;;;;;;10.20;2.22;;;;;;;;;;5094704;28;20028;-71
2021/03/11 14:17:44;;;;;;;8.93;2.28;;;;;;;;;;5094542;28;20044;-71
2021/03/11 14:20:10;;;;;;;7.25;2.40;;;;;;;;;;5094054;28;20310;-71
2021/03/11 14:22:37;;;;;;;6.30;2.30;;;;;;;;;;5094258;28;20027;-71
2021/03/11 14:25:03;;;;;;;5.20;2.13;;;;;;;;;;5094503;28;20032;-71
2021/03/11 14:27:29;;;;;;;5.20;2.13;;;;;;;;;;5095086;28;20020;-70
2021/03/11 14:29:55;;;;;;;5.82;1.80;;;;;;;;;;5095055;28;20026;-71
2021/03/11 14:32:21;;;;;;;6.22;1.70;;;;;;;;;;5093955;28;20028;-71
2021/03/11 14:34:46;;;;;;;6.45;2.13;;;;;;;;;;5088208;28;20039;-71
2021/03/11 14:37:11;;;;;;;3.88;1.83;;;;;;;;;;5089802;28;20451;-71
2021/03/11 14:39:39;;;;;;;4.68;2.13;;;;;;;;;;5093339;28;20173;-71